createdAt,value
2018-06-02T00:01:01.782Z,56.10
2018-06-02T00:03:29.329Z,53.30
2018-06-02T00:05:56.842Z,56.10
2018-06-02T00:08:24.369Z,48.77
2018-06-02T00:10:51.893Z,49.53
2018-06-02T00:13:19.419Z,47.87
2018-06-02T00:15:46.937Z,47.70
2018-06-02T00:18:14.446Z,46.23
2018-06-02T00:20:41.960Z,46.00
2018-06-02T00:23:09.475Z,43.77
2018-06-02T00:25:36.999Z,49.50
2018-06-02T00:28:04.521Z,49.13
2018-06-02T00:30:32.051Z,46.67
2018-06-02T00:32:59.571Z,44.90
2018-06-02T00:35:27.099Z,40.63
2018-06-02T00:37:54.614Z,43.63
2018-06-02T00:40:22.128Z,44.77
2018-06-02T00:42:49.683Z,45.43
2018-06-02T00:45:17.200Z,45.67
2018-06-02T00:47:44.715Z,44.03
2018-06-02T00:50:12.227Z,42.00
2018-06-02T00:52:39.749Z,44.27
2018-06-02T00:55:08.195Z,48.10
2018-06-02T00:57:35.716Z,45.13
2018-06-02T01:00:03.223Z,48.70
2018-06-02T01:02:30.790Z,48.50
2018-06-02T01:04:58.335Z,49.07
2018-06-02T01:07:25.850Z,47.43
2018-06-02T01:09:53.387Z,46.50
2018-06-02T01:12:20.911Z,47.60
2018-06-02T01:14:48.452Z,52.07
2018-06-02T01:17:15.959Z,67.07
2018-06-02T01:19:43.855Z,69.80
2018-06-02T01:22:11.371Z,75.70
2018-06-02T01:24:38.892Z,80.17
2018-06-02T01:27:06.410Z,81.70
2018-06-02T01:29:33.928Z,88.23
2018-06-02T01:32:01.453Z,85.37
2018-06-02T01:34:28.967Z,86.87
2018-06-02T01:36:56.483Z,89.33
2018-06-02T01:39:24.004Z,91.53
2018-06-02T01:41:51.535Z,87.47
2018-06-02T01:44:19.047Z,82.73
2018-06-02T01:46:46.575Z,80.20
2018-06-02T01:49:14.104Z,79.80
2018-06-02T01:51:41.648Z,82.20
2018-06-02T01:54:09.184Z,75.10
2018-06-02T01:56:36.713Z,72.27
2018-06-02T01:59:04.888Z,77.83
2018-06-02T02:01:32.423Z,73.63
2018-06-02T02:03:59.943Z,73.07
2018-06-02T02:06:27.478Z,69.80
2018-06-02T02:08:55.001Z,79.10
2018-06-02T02:11:22.534Z,74.63
2018-06-02T02:13:50.047Z,79.10
2018-06-02T02:16:17.583Z,73.07
2018-06-02T02:18:45.105Z,73.73
2018-06-02T02:21:12.638Z,77.33
2018-06-02T02:23:40.163Z,82.50
2018-06-02T02:26:07.701Z,74.57
2018-06-02T02:28:35.221Z,80.67
2018-06-02T02:31:06.823Z,82.97
2018-06-02T02:33:38.620Z,83.47
2018-06-02T02:36:06.159Z,88.57
2018-06-02T02:38:33.680Z,92.23
2018-06-02T02:41:01.225Z,91.27
2018-06-02T02:43:28.747Z,92.60
2018-06-02T02:45:56.285Z,90.63
2018-06-02T02:48:24.559Z,89.97
2018-06-02T02:50:52.838Z,97.17
2018-06-02T02:53:21.123Z,97.93
2018-06-02T02:55:48.643Z,90.13
2018-06-02T02:58:16.168Z,95.67
2018-06-02T03:00:43.699Z,89.53
2018-06-02T03:03:11.231Z,96.17
2018-06-02T03:05:38.748Z,86.67
2018-06-02T03:08:06.287Z,89.00
2018-06-02T03:10:33.806Z,96.97
2018-06-02T03:13:01.335Z,86.00
2018-06-02T03:15:28.848Z,90.77
2018-06-02T03:17:56.378Z,95.33
2018-06-02T03:20:23.899Z,79.57
2018-06-02T03:22:51.426Z,77.23
2018-06-02T03:25:18.943Z,74.37
2018-06-02T03:27:46.467Z,72.87
2018-06-02T03:30:13.987Z,66.37
2018-06-02T03:32:41.503Z,71.30
2018-06-02T03:35:09.027Z,65.83
2018-06-02T03:37:38.431Z,69.93
2018-06-02T03:40:05.947Z,54.60
2018-06-02T03:42:33.476Z,59.27
2018-06-02T03:45:00.989Z,62.87
2018-06-02T03:47:28.524Z,57.57
2018-06-02T03:49:56.048Z,50.73
2018-06-02T03:52:23.569Z,55.57
2018-06-02T03:54:51.095Z,51.47
2018-06-02T03:57:18.624Z,50.97
2018-06-02T03:59:46.151Z,42.30
2018-06-02T04:02:13.671Z,43.70
2018-06-02T04:04:41.206Z,40.10
2018-06-02T04:07:08.743Z,43.53
2018-06-02T04:09:37.176Z,42.03
2018-06-02T04:12:05.928Z,40.80
2018-06-02T04:14:33.451Z,41.67
2018-06-02T04:17:00.999Z,38.47
2018-06-02T04:19:28.523Z,40.80
2018-06-02T04:21:56.051Z,37.80
2018-06-02T04:24:23.578Z,38.30
2018-06-02T04:26:51.091Z,35.53
2018-06-02T04:29:18.611Z,36.83
2018-06-02T04:31:46.134Z,39.33
2018-06-02T04:34:13.658Z,37.57
2018-06-02T04:36:41.190Z,36.63
2018-06-02T04:39:08.711Z,38.20
2018-06-02T04:41:36.295Z,37.77
2018-06-02T04:44:03.776Z,33.63
2018-06-02T04:46:31.299Z,31.87
2018-06-02T04:48:58.815Z,31.27
2018-06-02T04:51:26.349Z,30.43
2018-06-02T04:53:53.870Z,30.63
2018-06-02T04:56:21.391Z,33.07
2018-06-02T04:58:49.684Z,31.13
2018-06-02T05:01:17.259Z,32.17
2018-06-02T05:03:44.777Z,30.23
2018-06-02T05:06:12.299Z,27.83
2018-06-02T05:08:39.818Z,26.30
2018-06-02T05:11:07.343Z,27.13
2018-06-02T05:13:34.870Z,31.13
2018-06-02T05:16:02.392Z,30.40
2018-06-02T05:18:29.910Z,30.67
2018-06-02T05:20:57.431Z,31.97
2018-06-02T05:23:25.068Z,29.13
2018-06-02T05:25:52.594Z,30.30
2018-06-02T05:28:20.131Z,30.33
2018-06-02T05:30:47.654Z,34.57
2018-06-02T05:33:15.190Z,30.23
2018-06-02T05:35:42.734Z,36.07
2018-06-02T05:38:10.278Z,29.90
2018-06-02T05:40:37.795Z,32.57
2018-06-02T05:43:05.343Z,28.63
2018-06-02T05:45:33.137Z,32.53
2018-06-02T05:48:00.691Z,34.07
2018-06-02T05:50:28.211Z,31.03
2018-06-02T05:52:55.751Z,29.83
2018-06-02T05:55:23.271Z,33.37
2018-06-02T05:57:50.795Z,33.93
2018-06-02T06:00:18.319Z,30.37
2018-06-02T06:02:45.851Z,28.90
2018-06-02T06:05:14.176Z,30.87
2018-06-02T06:07:41.693Z,32.63
2018-06-02T06:10:09.207Z,32.83
2018-06-02T06:12:36.743Z,37.00
2018-06-02T06:15:04.264Z,33.87
2018-06-02T06:17:31.786Z,37.87
2018-06-02T06:19:59.351Z,31.27
2018-06-02T06:22:26.866Z,45.10
2018-06-02T06:24:54.383Z,49.20
2018-06-02T06:27:21.939Z,36.33
2018-06-02T06:29:49.468Z,35.67
2018-06-02T06:32:17.026Z,31.67
2018-06-02T06:34:44.539Z,42.67
2018-06-02T06:37:12.063Z,36.50
2018-06-02T06:39:39.578Z,36.17
2018-06-02T06:42:07.102Z,37.53
2018-06-02T06:44:35.322Z,55.83
2018-06-02T06:47:04.223Z,41.33
2018-06-02T06:49:34.624Z,48.37
2018-06-02T06:52:07.126Z,48.30
2018-06-02T06:54:38.316Z,43.37
2018-06-02T06:57:06.720Z,44.27
2018-06-02T06:59:34.262Z,46.63
2018-06-02T07:02:01.788Z,50.83
2018-06-02T07:04:29.298Z,47.63
2018-06-02T07:06:57.577Z,47.40
2018-06-02T07:09:25.863Z,49.33
2018-06-02T07:11:53.511Z,38.73
2018-06-02T07:14:20.965Z,40.23
2018-06-02T07:16:48.480Z,39.03
2018-06-02T07:19:16.019Z,42.23
2018-06-02T07:21:43.572Z,39.70
2018-06-02T07:24:11.092Z,39.50
2018-06-02T07:26:38.622Z,38.27
2018-06-02T07:29:06.131Z,37.60
2018-06-02T07:31:34.416Z,36.43
2018-06-02T07:34:03.540Z,49.80
2018-06-02T07:36:31.048Z,37.57
2018-06-02T07:38:58.565Z,37.37
2018-06-02T07:41:26.083Z,42.07
2018-06-02T07:43:53.667Z,41.50
2018-06-02T07:46:21.196Z,37.07
2018-06-02T07:48:49.486Z,44.20
2018-06-02T07:51:17.412Z,47.20
2018-06-02T07:53:44.927Z,43.93
2018-06-02T07:56:12.450Z,43.27
2018-06-02T07:58:39.984Z,39.27
2018-06-02T08:01:07.554Z,41.67
2018-06-02T08:03:35.075Z,40.80
2018-06-02T08:06:02.969Z,44.10
2018-06-02T08:08:30.531Z,55.90
2018-06-02T08:10:58.038Z,42.93
2018-06-02T08:13:25.556Z,45.20
2018-06-02T08:15:53.093Z,48.27
2018-06-02T08:18:20.618Z,43.27
2018-06-02T08:20:48.903Z,41.50
2018-06-02T08:23:16.435Z,43.97
2018-06-02T08:25:43.962Z,80.87
2018-06-02T08:28:11.503Z,54.13
2018-06-02T08:30:39.018Z,45.40
2018-06-02T08:33:07.305Z,52.27
2018-06-02T08:35:34.814Z,44.53
2018-06-02T08:38:02.384Z,46.93
2018-06-02T08:40:29.911Z,44.50
2018-06-02T08:42:57.432Z,43.17
2018-06-02T08:45:24.959Z,44.73
2018-06-02T08:47:52.474Z,47.50
2018-06-02T08:50:19.998Z,46.67
2018-06-02T08:52:47.547Z,47.07
2018-06-02T08:55:15.071Z,45.10
2018-06-02T08:57:42.595Z,44.10
2018-06-02T09:00:10.884Z,46.53
2018-06-02T09:02:38.399Z,48.47
2018-06-02T09:05:05.914Z,41.13
2018-06-02T09:07:34.199Z,43.23
2018-06-02T09:10:01.719Z,44.07
2018-06-02T09:12:30.073Z,40.77
2018-06-02T09:14:57.591Z,45.53
2018-06-02T09:17:25.101Z,41.33
2018-06-02T09:19:52.620Z,45.23
2018-06-02T09:22:20.145Z,47.07
2018-06-02T09:24:47.659Z,47.20
2018-06-02T09:27:15.177Z,44.23
2018-06-02T09:29:42.701Z,43.20
2018-06-02T09:32:10.222Z,39.53
2018-06-02T09:34:37.748Z,44.07
2018-06-02T09:37:05.279Z,43.80
2018-06-02T09:39:32.796Z,43.63
2018-06-02T09:42:00.319Z,41.97
2018-06-02T09:44:27.846Z,39.97
2018-06-02T09:46:55.362Z,43.53
2018-06-02T09:49:22.887Z,37.67
2018-06-02T09:51:50.406Z,38.87
2018-06-02T09:54:17.924Z,36.43
2018-06-02T09:56:45.455Z,38.67
2018-06-02T09:59:12.983Z,38.27
2018-06-02T10:01:40.510Z,35.93
2018-06-02T10:04:08.026Z,33.67
2018-06-02T10:06:35.549Z,34.97
2018-06-02T10:09:03.076Z,36.00
2018-06-02T10:11:30.597Z,37.03
2018-06-02T10:13:58.120Z,33.07
2018-06-02T10:16:25.650Z,33.17
2018-06-02T10:18:53.174Z,30.63
2018-06-02T10:21:20.691Z,33.00
2018-06-02T10:23:48.215Z,30.67
2018-06-02T10:26:15.738Z,31.57
2018-06-02T10:28:43.266Z,28.83
2018-06-02T10:31:10.782Z,29.23
2018-06-02T10:33:38.295Z,29.00
2018-06-02T10:36:05.820Z,29.67
2018-06-02T10:38:33.335Z,27.40
2018-06-02T10:41:00.854Z,28.10
2018-06-02T10:43:28.380Z,29.37
2018-06-02T10:45:55.922Z,25.20
2018-06-02T10:48:23.439Z,25.70
2018-06-02T10:50:50.984Z,27.97
2018-06-02T10:53:18.500Z,29.43
2018-06-02T10:55:46.040Z,28.00
2018-06-02T10:58:13.559Z,25.60
2018-06-02T11:00:41.070Z,30.37
2018-06-02T11:03:09.355Z,25.40
2018-06-02T11:05:36.879Z,27.13
2018-06-02T11:08:04.398Z,28.00
2018-06-02T11:10:31.911Z,29.70
2018-06-02T11:12:59.427Z,31.60
2018-06-02T11:15:29.288Z,33.80
2018-06-02T11:17:56.802Z,34.93
2018-06-02T11:20:24.358Z,33.80
2018-06-02T11:22:51.879Z,29.57
2018-06-02T11:25:19.397Z,31.97
2018-06-02T11:27:46.928Z,34.80
2018-06-02T11:30:14.455Z,34.47
2018-06-02T11:32:41.975Z,34.63
2018-06-02T11:35:09.495Z,38.13
2018-06-02T11:37:37.307Z,38.27
2018-06-02T11:40:04.835Z,39.53
2018-06-02T11:42:32.356Z,39.67
2018-06-02T11:44:59.894Z,35.00
2018-06-02T11:47:27.413Z,37.90
2018-06-02T11:49:54.931Z,39.40
2018-06-02T11:52:23.231Z,37.20
2018-06-02T11:54:50.763Z,39.93
2018-06-02T11:57:19.225Z,37.70
2018-06-02T11:59:46.812Z,38.80
2018-06-02T12:02:14.970Z,35.80
2018-06-02T12:04:42.496Z,35.00
2018-06-02T12:07:10.202Z,37.13
2018-06-02T12:13:07.658Z,32.97
2018-06-02T12:15:35.191Z,34.00
2018-06-02T12:18:02.712Z,31.97
2018-06-02T12:20:30.236Z,36.20
2018-06-02T12:22:57.763Z,32.87
2018-06-02T12:25:25.287Z,35.77
2018-06-02T12:27:52.808Z,32.50
2018-06-02T12:30:20.341Z,34.83
2018-06-02T12:32:47.864Z,32.13
2018-06-02T12:35:15.387Z,31.57
2018-06-02T12:37:42.903Z,29.07
2018-06-02T12:40:10.467Z,28.80
2018-06-02T12:42:37.979Z,27.57
2018-06-02T12:45:05.490Z,31.77
2018-06-02T12:47:33.782Z,30.23
2018-06-02T12:50:01.295Z,31.23
2018-06-02T12:52:28.806Z,32.63
2018-06-02T12:54:56.323Z,27.43
2018-06-02T12:57:23.862Z,31.43
2018-06-02T12:59:51.383Z,28.03
2018-06-02T13:02:18.908Z,22.73
2018-06-02T13:04:46.433Z,25.47
2018-06-02T13:07:13.942Z,22.83
2018-06-02T13:09:41.455Z,23.57
2018-06-02T13:12:09.139Z,27.37
2018-06-02T13:14:36.727Z,36.37
2018-06-02T13:17:04.199Z,21.90
2018-06-02T13:19:31.726Z,59.47
2018-06-02T13:21:59.247Z,23.73
2018-06-02T13:24:26.820Z,20.40
2018-06-02T13:26:54.344Z,21.53
2018-06-02T13:29:21.872Z,20.77
2018-06-02T13:31:49.396Z,21.23
2018-06-02T13:34:16.907Z,20.53
2018-06-02T13:36:44.431Z,18.67
2018-06-02T13:39:11.952Z,19.63
2018-06-02T13:41:39.475Z,19.73
2018-06-02T13:44:07.195Z,22.17
2018-06-02T13:46:34.706Z,20.70
2018-06-02T13:49:02.218Z,21.40
2018-06-02T13:51:29.740Z,21.67
2018-06-02T13:53:57.266Z,20.93
2018-06-02T13:56:24.779Z,20.63
2018-06-02T13:58:52.291Z,22.80
2018-06-02T14:01:19.811Z,22.17
2018-06-02T14:03:47.335Z,29.87
2018-06-02T14:06:14.859Z,23.53
2018-06-02T14:08:42.379Z,19.77
2018-06-02T14:11:09.905Z,20.07
2018-06-02T14:13:37.416Z,20.20
2018-06-02T14:16:04.930Z,23.73
2018-06-02T14:18:32.480Z,21.37
2018-06-02T14:20:59.991Z,19.97
2018-06-02T14:23:27.524Z,21.07
2018-06-02T14:25:55.043Z,20.00
2018-06-02T14:28:22.580Z,18.07
2018-06-02T14:30:50.102Z,20.87
2018-06-02T14:33:17.627Z,18.07
2018-06-02T14:35:45.460Z,19.17
2018-06-02T14:38:13.035Z,13.60
2018-06-02T14:40:40.519Z,14.57
2018-06-02T14:43:08.040Z,14.13
2018-06-02T14:45:35.546Z,14.80
2018-06-02T14:48:03.848Z,14.97
2018-06-02T14:50:31.367Z,14.00
2018-06-02T14:52:58.888Z,13.40
2018-06-02T14:55:26.405Z,16.47
2018-06-02T14:57:55.215Z,14.77
2018-06-02T15:00:22.739Z,14.10
2018-06-02T15:02:50.268Z,14.63
2018-06-02T15:05:17.793Z,14.57
2018-06-02T15:07:45.316Z,13.30
2018-06-02T15:10:13.599Z,15.17
2018-06-02T15:12:41.110Z,12.60
2018-06-02T15:15:08.634Z,14.30
2018-06-02T15:17:36.915Z,13.97
2018-06-02T15:20:04.436Z,15.90
2018-06-02T15:22:31.953Z,16.47
2018-06-02T15:24:59.519Z,15.63
2018-06-02T15:27:27.777Z,16.60
2018-06-02T15:29:55.720Z,15.23
2018-06-02T15:32:23.234Z,15.80
2018-06-02T15:34:50.751Z,15.57
2018-06-02T15:37:18.259Z,19.77
2018-06-02T15:39:45.785Z,20.27
2018-06-02T15:42:14.130Z,17.27
2018-06-02T15:44:41.616Z,18.00
2018-06-02T15:47:09.155Z,17.43
2018-06-02T15:49:36.677Z,19.67
2018-06-02T15:52:04.196Z,19.13
2018-06-02T15:54:31.713Z,17.97
2018-06-02T15:56:59.231Z,16.80
2018-06-02T15:59:26.761Z,17.10
2018-06-02T16:01:54.282Z,16.83
2018-06-02T16:04:21.796Z,16.67
2018-06-02T16:06:49.311Z,20.90
2018-06-02T16:09:16.822Z,18.50
2018-06-02T16:11:44.722Z,17.87
2018-06-02T16:14:12.687Z,18.37
2018-06-02T16:16:40.211Z,18.90
2018-06-02T16:19:08.491Z,17.37
2018-06-02T16:21:36.010Z,17.40
2018-06-02T16:24:03.526Z,17.03
2018-06-02T16:26:31.054Z,15.90
2018-06-02T16:28:58.608Z,16.93
2018-06-02T16:31:26.128Z,17.00
2018-06-02T16:33:53.658Z,15.50
2018-06-02T16:36:21.189Z,15.47
2018-06-02T16:38:48.746Z,16.50
2018-06-02T16:41:16.311Z,14.77
2018-06-02T16:43:43.827Z,14.93
2018-06-02T16:46:11.348Z,14.83
2018-06-02T16:48:38.871Z,16.67
2018-06-02T16:51:06.392Z,15.17
2018-06-02T16:53:33.912Z,15.20
2018-06-02T16:56:01.439Z,18.83
2018-06-02T16:58:28.972Z,15.10
2018-06-02T17:00:56.524Z,15.47
2018-06-02T17:03:24.048Z,15.80
2018-06-02T17:05:51.556Z,18.70
2018-06-02T17:08:19.080Z,19.67
2018-06-02T17:10:46.605Z,22.13
2018-06-02T17:13:14.124Z,20.33
2018-06-02T17:15:41.645Z,21.30
2018-06-02T17:18:09.187Z,19.57
2018-06-02T17:20:36.712Z,18.70
2018-06-02T17:23:04.230Z,19.53
2018-06-02T17:25:31.759Z,19.90
2018-06-02T17:27:59.279Z,19.53
2018-06-02T17:30:26.807Z,19.40
2018-06-02T17:32:54.332Z,18.47
2018-06-02T17:35:21.848Z,18.77
2018-06-02T17:37:49.384Z,19.67
2018-06-02T17:40:17.015Z,21.23
2018-06-02T17:42:44.590Z,18.20
2018-06-02T17:45:12.275Z,18.20
2018-06-02T17:47:39.978Z,18.10
2018-06-02T17:50:07.550Z,21.53
2018-06-02T17:52:35.075Z,22.77
2018-06-02T17:55:02.597Z,19.23
2018-06-02T17:57:30.123Z,19.93
2018-06-02T17:59:57.646Z,21.60
2018-06-02T18:02:25.166Z,20.50
2018-06-02T18:04:52.674Z,17.07
2018-06-02T18:07:20.203Z,19.07
2018-06-02T18:09:47.801Z,17.50
2018-06-02T18:12:15.587Z,16.97
2018-06-02T18:14:43.224Z,16.90
2018-06-02T18:17:11.115Z,17.10
2018-06-02T18:19:38.637Z,17.67
2018-06-02T18:22:06.155Z,18.03
2018-06-02T18:24:33.670Z,16.93
2018-06-02T18:27:01.953Z,18.03
2018-06-02T18:29:29.470Z,17.50
2018-06-02T18:31:56.988Z,17.77
2018-06-02T18:34:24.520Z,17.63
2018-06-02T18:36:52.042Z,17.40
2018-06-02T18:39:19.682Z,18.53
2018-06-02T18:41:47.235Z,17.13
2018-06-02T18:44:14.755Z,19.30
2018-06-02T18:46:42.278Z,18.17
2018-06-02T18:49:09.802Z,17.43
2018-06-02T18:51:38.107Z,17.57
2018-06-02T18:54:05.634Z,17.30
2018-06-02T18:56:33.234Z,18.30
2018-06-02T18:59:00.753Z,17.87
2018-06-02T19:01:28.304Z,17.47
2018-06-02T19:03:55.828Z,18.87
2018-06-02T19:06:23.367Z,20.07
2018-06-02T19:08:50.891Z,17.90
2018-06-02T19:11:18.436Z,18.83
2018-06-02T19:13:45.949Z,17.17
2018-06-02T19:16:13.492Z,16.70
2018-06-02T19:18:41.010Z,19.27
2018-06-02T19:21:08.543Z,18.60
2018-06-02T19:23:36.103Z,19.40
2018-06-02T19:26:03.674Z,18.73
2018-06-02T19:28:31.199Z,22.90
2018-06-02T19:30:58.743Z,18.43
2018-06-02T19:33:26.268Z,19.40
2018-06-02T19:35:53.825Z,21.67
2018-06-02T19:38:21.339Z,17.50
2018-06-02T19:40:48.878Z,18.27
2018-06-02T19:43:16.406Z,18.97
2018-06-02T19:45:43.928Z,18.53
2018-06-02T19:48:11.457Z,22.47
2018-06-02T19:50:39.001Z,21.60
2018-06-02T19:53:06.526Z,19.97
2018-06-02T19:55:34.047Z,23.97
2018-06-02T19:58:01.571Z,21.57
2018-06-02T20:00:29.385Z,20.93
2018-06-02T20:02:56.903Z,20.53
2018-06-02T20:05:24.423Z,21.60
2018-06-02T20:07:51.990Z,23.27
2018-06-02T20:10:19.514Z,21.00
2018-06-02T20:12:47.803Z,20.10
2018-06-02T20:15:15.327Z,23.33
2018-06-02T20:17:42.846Z,20.60
2018-06-02T20:20:10.368Z,19.53
2018-06-02T20:22:38.656Z,21.00
2018-06-02T20:25:06.191Z,26.63
2018-06-02T20:27:33.711Z,20.80
2018-06-02T20:30:01.227Z,21.87
2018-06-02T20:32:29.511Z,23.67
2018-06-02T20:34:57.050Z,22.80
2018-06-02T20:37:24.563Z,27.13
2018-06-02T20:39:52.087Z,25.03
2018-06-02T20:42:20.380Z,25.17
2018-06-02T20:44:47.931Z,21.53
2018-06-02T20:47:15.458Z,24.10
2018-06-02T20:49:42.987Z,24.37
2018-06-02T20:52:10.510Z,25.40
2018-06-02T20:54:38.028Z,28.17
2018-06-02T20:57:05.543Z,23.80
2018-06-02T20:59:33.063Z,26.53
2018-06-02T21:02:00.574Z,26.80
2018-06-02T21:04:28.110Z,27.83
2018-06-02T21:06:55.626Z,22.83
2018-06-02T21:09:23.147Z,24.37
2018-06-02T21:11:50.671Z,30.93
2018-06-02T21:14:18.186Z,27.20
2018-06-02T21:16:45.723Z,26.27
2018-06-02T21:19:13.234Z,26.47
2018-06-02T21:21:40.747Z,28.83
2018-06-02T21:24:08.260Z,23.53
2018-06-02T21:26:35.783Z,24.47
2018-06-02T21:29:03.302Z,28.27
2018-06-02T21:31:31.607Z,25.33
2018-06-02T21:33:59.127Z,25.43
2018-06-02T21:36:26.669Z,27.53
2018-06-02T21:38:54.183Z,28.20
2018-06-02T21:41:21.691Z,27.73
2018-06-02T21:43:49.208Z,26.77
2018-06-02T21:46:16.759Z,26.73
2018-06-02T21:48:44.262Z,26.73
2018-06-02T21:51:11.775Z,29.30
2018-06-02T21:53:39.286Z,32.47
2018-06-02T21:56:07.101Z,30.03
2018-06-02T21:58:34.630Z,29.10
2018-06-02T22:01:02.154Z,32.20
2018-06-02T22:03:29.674Z,27.63
2018-06-02T22:05:57.563Z,31.03
2018-06-02T22:08:25.078Z,31.37
2018-06-02T22:10:52.590Z,27.80
2018-06-02T22:13:20.115Z,29.00
2018-06-02T22:15:47.638Z,29.03
2018-06-02T22:18:15.179Z,29.70
2018-06-02T22:20:42.695Z,29.20
2018-06-02T22:23:10.230Z,31.13
2018-06-02T22:25:37.746Z,28.37
2018-06-02T22:28:05.291Z,32.73
2018-06-02T22:30:32.811Z,32.13
2018-06-02T22:33:01.119Z,30.73
2018-06-02T22:35:28.634Z,28.07
2018-06-02T22:37:56.174Z,30.63
2018-06-02T22:40:23.690Z,28.20
2018-06-02T22:42:51.245Z,29.73
2018-06-02T22:45:18.770Z,32.23
2018-06-02T22:47:46.316Z,30.50
2018-06-02T22:50:13.828Z,32.97
2018-06-02T22:52:41.359Z,29.60
2018-06-02T22:55:08.887Z,34.13
2018-06-02T22:57:36.408Z,28.73
2018-06-02T23:00:03.926Z,32.80
2018-06-02T23:02:31.444Z,31.50
2018-06-02T23:04:58.976Z,33.40
2018-06-02T23:07:26.514Z,30.23
2018-06-02T23:09:54.041Z,29.57
2018-06-02T23:12:21.571Z,30.27
2018-06-02T23:14:49.095Z,30.87
2018-06-02T23:17:16.607Z,29.90
2018-06-02T23:19:44.126Z,32.07
2018-06-02T23:22:23.328Z,31.37
2018-06-02T23:24:50.891Z,32.43
2018-06-02T23:27:18.417Z,32.70
2018-06-02T23:29:45.936Z,32.67
2018-06-02T23:32:14.687Z,35.27
2018-06-02T23:34:42.212Z,31.50
2018-06-02T23:37:09.741Z,31.30
2018-06-02T23:39:37.267Z,35.03
2018-06-02T23:42:04.786Z,31.53
2018-06-02T23:44:32.317Z,31.20
2018-06-02T23:46:59.882Z,32.80
2018-06-02T23:49:28.175Z,35.90
2018-06-02T23:51:55.685Z,33.90
2018-06-02T23:54:23.224Z,31.90
2018-06-02T23:56:50.743Z,34.90
2018-06-02T23:59:18.269Z,36.93
